sensor_id;sensor_type;location;lat;lon;timestamp;P1;durP1;ratioP1;P2;durP2;ratioP2
42132;SDS011;70517;48.192;16.278;2024-03-02T00:00:55;17.00;;;10.97;;
42132;SDS011;70517;48.192;16.278;2024-03-02T00:03:55;16.77;;;12.07;;
42132;SDS011;70517;48.192;16.278;2024-03-02T00:06:55;15.40;;;9.97;;
42132;SDS011;70517;48.192;16.278;2024-03-02T00:09:56;15.17;;;10.43;;
42132;SDS011;70517;48.192;16.278;2024-03-02T00:12:56;15.53;;;10.93;;
42132;SDS011;70517;48.192;16.278;2024-03-02T00:15:59;15.40;;;10.48;;
42132;SDS011;70517;48.192;16.278;2024-03-02T00:19:03;15.60;;;10.67;;
42132;SDS011;70517;48.192;16.278;2024-03-02T00:22:03;15.27;;;11.23;;
42132;SDS011;70517;48.192;16.278;2024-03-02T00:25:03;16.43;;;10.57;;
42132;SDS011;70517;48.192;16.278;2024-03-02T00:28:04;14.93;;;10.67;;
42132;SDS011;70517;48.192;16.278;2024-03-02T00:31:13;16.20;;;10.60;;
42132;SDS011;70517;48.192;16.278;2024-03-02T00:34:14;15.88;;;10.82;;
42132;SDS011;70517;48.192;16.278;2024-03-02T00:37:16;16.30;;;9.80;;
42132;SDS011;70517;48.192;16.278;2024-03-02T00:40:16;14.77;;;9.57;;
42132;SDS011;70517;48.192;16.278;2024-03-02T00:46:37;18.20;;;11.18;;
42132;SDS011;70517;48.192;16.278;2024-03-02T00:49:37;19.05;;;12.13;;
42132;SDS011;70517;48.192;16.278;2024-03-02T00:52:37;16.47;;;11.60;;
42132;SDS011;70517;48.192;16.278;2024-03-02T00:55:38;18.73;;;11.33;;
42132;SDS011;70517;48.192;16.278;2024-03-02T00:58:39;14.88;;;10.55;;
42132;SDS011;70517;48.192;16.278;2024-03-02T01:01:39;15.90;;;10.10;;
42132;SDS011;70517;48.192;16.278;2024-03-02T01:04:39;19.67;;;10.67;;
42132;SDS011;70517;48.192;16.278;2024-03-02T01:07:39;12.87;;;8.90;;
42132;SDS011;70517;48.192;16.278;2024-03-02T01:10:40;16.33;;;10.27;;
42132;SDS011;70517;48.192;16.278;2024-03-02T01:13:40;15.63;;;10.10;;
42132;SDS011;70517;48.192;16.278;2024-03-02T01:16:40;15.07;;;10.53;;
42132;SDS011;70517;48.192;16.278;2024-03-02T01:19:41;15.10;;;9.77;;
42132;SDS011;70517;48.192;16.278;2024-03-02T01:22:41;14.52;;;9.85;;
42132;SDS011;70517;48.192;16.278;2024-03-02T01:25:42;16.13;;;9.50;;
42132;SDS011;70517;48.192;16.278;2024-03-02T01:28:42;15.23;;;9.77;;
42132;SDS011;70517;48.192;16.278;2024-03-02T01:31:42;13.87;;;10.00;;
42132;SDS011;70517;48.192;16.278;2024-03-02T01:34:42;13.10;;;9.33;;
42132;SDS011;70517;48.192;16.278;2024-03-02T01:37:43;16.00;;;8.87;;
42132;SDS011;70517;48.192;16.278;2024-03-02T01:40:43;18.27;;;9.33;;
42132;SDS011;70517;48.192;16.278;2024-03-02T01:43:46;16.42;;;9.85;;
42132;SDS011;70517;48.192;16.278;2024-03-02T01:46:46;15.80;;;9.60;;
42132;SDS011;70517;48.192;16.278;2024-03-02T01:49:47;13.73;;;8.87;;
42132;SDS011;70517;48.192;16.278;2024-03-02T01:52:47;15.33;;;10.00;;
42132;SDS011;70517;48.192;16.278;2024-03-02T01:55:47;14.47;;;9.47;;
42132;SDS011;70517;48.192;16.278;2024-03-02T01:58:47;17.40;;;10.30;;
42132;SDS011;70517;48.192;16.278;2024-03-02T02:01:48;17.67;;;9.87;;
42132;SDS011;70517;48.192;16.278;2024-03-02T02:04:48;14.70;;;8.93;;
42132;SDS011;70517;48.192;16.278;2024-03-02T02:07:48;15.23;;;9.73;;
42132;SDS011;70517;48.192;16.278;2024-03-02T02:10:49;15.33;;;9.47;;
42132;SDS011;70517;48.192;16.278;2024-03-02T02:13:49;15.30;;;10.13;;
42132;SDS011;70517;48.192;16.278;2024-03-02T02:16:49;18.07;;;10.43;;
42132;SDS011;70517;48.192;16.278;2024-03-02T02:19:49;18.93;;;10.40;;
42132;SDS011;70517;48.192;16.278;2024-03-02T02:23:00;18.30;;;10.37;;
42132;SDS011;70517;48.192;16.278;2024-03-02T02:26:00;19.02;;;10.77;;
42132;SDS011;70517;48.192;16.278;2024-03-02T02:29:01;16.70;;;10.65;;
42132;SDS011;70517;48.192;16.278;2024-03-02T02:32:02;18.10;;;10.57;;
42132;SDS011;70517;48.192;16.278;2024-03-02T02:35:02;17.37;;;9.90;;
42132;SDS011;70517;48.192;16.278;2024-03-02T02:38:03;18.88;;;10.13;;
42132;SDS011;70517;48.192;16.278;2024-03-02T02:41:04;16.17;;;10.32;;
42132;SDS011;70517;48.192;16.278;2024-03-02T02:44:04;17.53;;;9.83;;
42132;SDS011;70517;48.192;16.278;2024-03-02T02:47:04;17.73;;;9.53;;
42132;SDS011;70517;48.192;16.278;2024-03-02T02:50:06;19.10;;;9.67;;
42132;SDS011;70517;48.192;16.278;2024-03-02T02:53:07;15.80;;;9.90;;
42132;SDS011;70517;48.192;16.278;2024-03-02T02:56:09;15.48;;;9.35;;
42132;SDS011;70517;48.192;16.278;2024-03-02T02:59:09;14.70;;;8.63;;
42132;SDS011;70517;48.192;16.278;2024-03-02T03:02:10;14.77;;;9.17;;
42132;SDS011;70517;48.192;16.278;2024-03-02T03:05:11;13.10;;;8.53;;
42132;SDS011;70517;48.192;16.278;2024-03-02T03:08:11;13.18;;;8.30;;
42132;SDS011;70517;48.192;16.278;2024-03-02T03:11:11;15.23;;;9.00;;
42132;SDS011;70517;48.192;16.278;2024-03-02T03:14:11;14.70;;;9.00;;
42132;SDS011;70517;48.192;16.278;2024-03-02T03:17:12;17.93;;;9.90;;
42132;SDS011;70517;48.192;16.278;2024-03-02T03:20:13;17.17;;;9.53;;
42132;SDS011;70517;48.192;16.278;2024-03-02T03:23:14;13.82;;;8.98;;
42132;SDS011;70517;48.192;16.278;2024-03-02T03:26:16;16.90;;;10.27;;
42132;SDS011;70517;48.192;16.278;2024-03-02T03:29:16;16.57;;;9.37;;
42132;SDS011;70517;48.192;16.278;2024-03-02T03:32:16;15.87;;;9.23;;
42132;SDS011;70517;48.192;16.278;2024-03-02T03:35:16;14.20;;;9.53;;
42132;SDS011;70517;48.192;16.278;2024-03-02T03:38:18;16.80;;;9.65;;
42132;SDS011;70517;48.192;16.278;2024-03-02T03:41:19;13.80;;;8.57;;
42132;SDS011;70517;48.192;16.278;2024-03-02T03:44:19;15.53;;;8.80;;
42132;SDS011;70517;48.192;16.278;2024-03-02T03:47:19;12.20;;;8.70;;
42132;SDS011;70517;48.192;16.278;2024-03-02T03:50:20;13.63;;;8.53;;
42132;SDS011;70517;48.192;16.278;2024-03-02T03:53:20;13.83;;;8.50;;
42132;SDS011;70517;48.192;16.278;2024-03-02T03:56:20;14.00;;;8.77;;
42132;SDS011;70517;48.192;16.278;2024-03-02T03:59:21;14.40;;;8.10;;
42132;SDS011;70517;48.192;16.278;2024-03-02T04:02:21;16.30;;;9.37;;
42132;SDS011;70517;48.192;16.278;2024-03-02T04:05:21;13.10;;;8.67;;
42132;SDS011;70517;48.192;16.278;2024-03-02T04:08:21;14.33;;;8.57;;
42132;SDS011;70517;48.192;16.278;2024-03-02T04:11:21;15.63;;;8.97;;
42132;SDS011;70517;48.192;16.278;2024-03-02T04:14:22;12.83;;;8.37;;
42132;SDS011;70517;48.192;16.278;2024-03-02T04:17:22;14.60;;;8.60;;
42132;SDS011;70517;48.192;16.278;2024-03-02T04:20:22;12.17;;;7.83;;
42132;SDS011;70517;48.192;16.278;2024-03-02T04:23:22;11.23;;;7.53;;
42132;SDS011;70517;48.192;16.278;2024-03-02T04:26:23;11.07;;;7.27;;
42132;SDS011;70517;48.192;16.278;2024-03-02T04:29:23;12.63;;;7.57;;
42132;SDS011;70517;48.192;16.278;2024-03-02T04:32:23;10.77;;;7.30;;
42132;SDS011;70517;48.192;16.278;2024-03-02T04:35:24;12.50;;;7.57;;
42132;SDS011;70517;48.192;16.278;2024-03-02T04:38:25;10.50;;;7.32;;
42132;SDS011;70517;48.192;16.278;2024-03-02T04:41:25;9.97;;;6.83;;
42132;SDS011;70517;48.192;16.278;2024-03-02T04:44:25;12.10;;;6.97;;
42132;SDS011;70517;48.192;16.278;2024-03-02T04:47:25;10.60;;;6.90;;
42132;SDS011;70517;48.192;16.278;2024-03-02T04:50:26;9.90;;;6.47;;
42132;SDS011;70517;48.192;16.278;2024-03-02T04:53:26;9.17;;;6.30;;
42132;SDS011;70517;48.192;16.278;2024-03-02T04:56:26;12.07;;;7.03;;
42132;SDS011;70517;48.192;16.278;2024-03-02T04:59:26;9.27;;;6.37;;
42132;SDS011;70517;48.192;16.278;2024-03-02T05:02:27;9.53;;;6.40;;
42132;SDS011;70517;48.192;16.278;2024-03-02T05:05:27;9.77;;;6.50;;
42132;SDS011;70517;48.192;16.278;2024-03-02T05:08:27;10.50;;;6.30;;
42132;SDS011;70517;48.192;16.278;2024-03-02T05:11:27;9.50;;;6.20;;
42132;SDS011;70517;48.192;16.278;2024-03-02T05:14:37;10.80;;;6.63;;
42132;SDS011;70517;48.192;16.278;2024-03-02T05:17:39;10.30;;;6.80;;
42132;SDS011;70517;48.192;16.278;2024-03-02T05:20:39;9.88;;;6.38;;
42132;SDS011;70517;48.192;16.278;2024-03-02T05:23:39;10.67;;;6.77;;
42132;SDS011;70517;48.192;16.278;2024-03-02T05:26:40;8.90;;;6.57;;
42132;SDS011;70517;48.192;16.278;2024-03-02T05:29:40;9.20;;;6.73;;
42132;SDS011;70517;48.192;16.278;2024-03-02T05:32:40;9.67;;;6.47;;
42132;SDS011;70517;48.192;16.278;2024-03-02T05:35:41;11.03;;;6.60;;
42132;SDS011;70517;48.192;16.278;2024-03-02T05:38:41;10.20;;;6.60;;
42132;SDS011;70517;48.192;16.278;2024-03-02T05:41:41;12.53;;;6.77;;
42132;SDS011;70517;48.192;16.278;2024-03-02T05:44:41;9.57;;;6.80;;
42132;SDS011;70517;48.192;16.278;2024-03-02T05:47:42;8.83;;;6.43;;
42132;SDS011;70517;48.192;16.278;2024-03-02T05:50:42;8.13;;;6.17;;
42132;SDS011;70517;48.192;16.278;2024-03-02T05:53:42;8.83;;;6.33;;
42132;SDS011;70517;48.192;16.278;2024-03-02T05:56:42;12.53;;;7.13;;
42132;SDS011;70517;48.192;16.278;2024-03-02T05:59:43;11.87;;;7.10;;
42132;SDS011;70517;48.192;16.278;2024-03-02T06:02:46;10.13;;;6.38;;
42132;SDS011;70517;48.192;16.278;2024-03-02T06:05:46;9.03;;;6.70;;
42132;SDS011;70517;48.192;16.278;2024-03-02T06:08:49;7.78;;;6.10;;
42132;SDS011;70517;48.192;16.278;2024-03-02T06:11:50;8.05;;;5.88;;
42132;SDS011;70517;48.192;16.278;2024-03-02T06:14:50;7.90;;;5.53;;
42132;SDS011;70517;48.192;16.278;2024-03-02T06:17:51;6.53;;;5.50;;
42132;SDS011;70517;48.192;16.278;2024-03-02T06:20:51;5.77;;;4.93;;
42132;SDS011;70517;48.192;16.278;2024-03-02T06:23:51;5.63;;;4.80;;
42132;SDS011;70517;48.192;16.278;2024-03-02T06:26:51;5.77;;;4.63;;
42132;SDS011;70517;48.192;16.278;2024-03-02T06:29:52;6.03;;;4.67;;
42132;SDS011;70517;48.192;16.278;2024-03-02T06:32:52;7.17;;;5.23;;
42132;SDS011;70517;48.192;16.278;2024-03-02T06:35:52;8.53;;;5.43;;
42132;SDS011;70517;48.192;16.278;2024-03-02T06:38:52;5.80;;;4.53;;
42132;SDS011;70517;48.192;16.278;2024-03-02T06:41:53;7.17;;;5.20;;
42132;SDS011;70517;48.192;16.278;2024-03-02T06:44:53;6.93;;;4.83;;
42132;SDS011;70517;48.192;16.278;2024-03-02T06:47:53;6.80;;;5.03;;
42132;SDS011;70517;48.192;16.278;2024-03-02T06:50:53;6.23;;;5.13;;
42132;SDS011;70517;48.192;16.278;2024-03-02T06:53:54;7.45;;;5.30;;
42132;SDS011;70517;48.192;16.278;2024-03-02T06:56:55;6.70;;;4.75;;
42132;SDS011;70517;48.192;16.278;2024-03-02T06:59:55;7.53;;;5.33;;
42132;SDS011;70517;48.192;16.278;2024-03-02T07:02:58;8.57;;;5.65;;
42132;SDS011;70517;48.192;16.278;2024-03-02T07:05:58;7.70;;;5.53;;
42132;SDS011;70517;48.192;16.278;2024-03-02T07:08:59;6.70;;;4.97;;
42132;SDS011;70517;48.192;16.278;2024-03-02T07:11:59;6.13;;;4.87;;
42132;SDS011;70517;48.192;16.278;2024-03-02T07:14:59;6.67;;;5.20;;
42132;SDS011;70517;48.192;16.278;2024-03-02T07:18:03;8.40;;;5.45;;
42132;SDS011;70517;48.192;16.278;2024-03-02T07:21:04;6.70;;;5.18;;
42132;SDS011;70517;48.192;16.278;2024-03-02T07:24:04;7.77;;;5.30;;
42132;SDS011;70517;48.192;16.278;2024-03-02T07:27:04;7.23;;;5.27;;
42132;SDS011;70517;48.192;16.278;2024-03-02T07:30:05;7.67;;;4.93;;
42132;SDS011;70517;48.192;16.278;2024-03-02T07:33:05;8.88;;;6.18;;
42132;SDS011;70517;48.192;16.278;2024-03-02T07:36:06;8.60;;;6.63;;
42132;SDS011;70517;48.192;16.278;2024-03-02T07:39:07;8.13;;;5.75;;
42132;SDS011;70517;48.192;16.278;2024-03-02T07:42:07;6.97;;;5.30;;
42132;SDS011;70517;48.192;16.278;2024-03-02T07:45:07;6.90;;;5.40;;
42132;SDS011;70517;48.192;16.278;2024-03-02T07:48:08;6.77;;;5.10;;
42132;SDS011;70517;48.192;16.278;2024-03-02T07:51:08;6.50;;;4.63;;
42132;SDS011;70517;48.192;16.278;2024-03-02T07:54:08;6.80;;;4.67;;
42132;SDS011;70517;48.192;16.278;2024-03-02T07:57:09;9.43;;;5.40;;
42132;SDS011;70517;48.192;16.278;2024-03-02T08:00:10;8.80;;;4.82;;
42132;SDS011;70517;48.192;16.278;2024-03-02T08:03:11;5.23;;;4.67;;
42132;SDS011;70517;48.192;16.278;2024-03-02T08:06:11;6.80;;;4.80;;
42132;SDS011;70517;48.192;16.278;2024-03-02T08:09:12;5.43;;;4.43;;
42132;SDS011;70517;48.192;16.278;2024-03-02T08:12:12;6.67;;;4.77;;
42132;SDS011;70517;48.192;16.278;2024-03-02T08:15:12;6.73;;;4.67;;
42132;SDS011;70517;48.192;16.278;2024-03-02T08:18:13;6.57;;;4.70;;
42132;SDS011;70517;48.192;16.278;2024-03-02T08:21:13;5.50;;;4.53;;
42132;SDS011;70517;48.192;16.278;2024-03-02T08:24:13;6.83;;;4.87;;
42132;SDS011;70517;48.192;16.278;2024-03-02T08:27:14;6.13;;;4.27;;
42132;SDS011;70517;48.192;16.278;2024-03-02T08:30:15;6.40;;;4.47;;
42132;SDS011;70517;48.192;16.278;2024-03-02T08:33:15;7.03;;;5.07;;
42132;SDS011;70517;48.192;16.278;2024-03-02T08:36:15;5.77;;;4.80;;
42132;SDS011;70517;48.192;16.278;2024-03-02T08:39:15;7.43;;;5.33;;
42132;SDS011;70517;48.192;16.278;2024-03-02T08:42:16;5.90;;;5.17;;
42132;SDS011;70517;48.192;16.278;2024-03-02T08:45:17;6.72;;;5.15;;
42132;SDS011;70517;48.192;16.278;2024-03-02T08:48:20;7.00;;;5.20;;
42132;SDS011;70517;48.192;16.278;2024-03-02T08:51:21;6.13;;;4.82;;
42132;SDS011;70517;48.192;16.278;2024-03-02T08:54:21;6.57;;;5.13;;
42132;SDS011;70517;48.192;16.278;2024-03-02T08:57:21;6.63;;;5.10;;
42132;SDS011;70517;48.192;16.278;2024-03-02T09:00:22;6.60;;;5.33;;
42132;SDS011;70517;48.192;16.278;2024-03-02T09:03:23;8.30;;;6.22;;
42132;SDS011;70517;48.192;16.278;2024-03-02T09:06:23;6.90;;;5.17;;
42132;SDS011;70517;48.192;16.278;2024-03-02T09:09:23;7.33;;;6.17;;
42132;SDS011;70517;48.192;16.278;2024-03-02T09:12:24;10.27;;;6.33;;
42132;SDS011;70517;48.192;16.278;2024-03-02T09:15:24;8.37;;;5.77;;
42132;SDS011;70517;48.192;16.278;2024-03-02T09:18:24;8.57;;;6.47;;
42132;SDS011;70517;48.192;16.278;2024-03-02T09:21:25;8.60;;;5.90;;
42132;SDS011;70517;48.192;16.278;2024-03-02T09:24:25;8.70;;;6.53;;
42132;SDS011;70517;48.192;16.278;2024-03-02T09:27:25;8.90;;;6.73;;
42132;SDS011;70517;48.192;16.278;2024-03-02T09:30:26;10.20;;;6.60;;
42132;SDS011;70517;48.192;16.278;2024-03-02T09:33:26;8.53;;;6.63;;
42132;SDS011;70517;48.192;16.278;2024-03-02T09:36:27;11.17;;;7.17;;
42132;SDS011;70517;48.192;16.278;2024-03-02T09:39:28;13.77;;;7.57;;
42132;SDS011;70517;48.192;16.278;2024-03-02T09:42:29;10.40;;;7.23;;
42132;SDS011;70517;48.192;16.278;2024-03-02T09:45:29;10.07;;;7.27;;
42132;SDS011;70517;48.192;16.278;2024-03-02T09:48:30;12.47;;;7.50;;
42132;SDS011;70517;48.192;16.278;2024-03-02T09:51:31;11.23;;;8.03;;
42132;SDS011;70517;48.192;16.278;2024-03-02T09:54:31;12.77;;;7.78;;
42132;SDS011;70517;48.192;16.278;2024-03-02T09:57:31;13.23;;;8.70;;
42132;SDS011;70517;48.192;16.278;2024-03-02T10:00:31;11.50;;;8.20;;
42132;SDS011;70517;48.192;16.278;2024-03-02T10:03:32;10.10;;;7.93;;
42132;SDS011;70517;48.192;16.278;2024-03-02T10:09:33;9.93;;;6.75;;
42132;SDS011;70517;48.192;16.278;2024-03-02T10:12:34;10.73;;;7.97;;
42132;SDS011;70517;48.192;16.278;2024-03-02T10:15:34;12.03;;;8.17;;
42132;SDS011;70517;48.192;16.278;2024-03-02T10:18:34;11.27;;;8.00;;
42132;SDS011;70517;48.192;16.278;2024-03-02T10:21:35;13.53;;;8.73;;
42132;SDS011;70517;48.192;16.278;2024-03-02T10:24:36;13.20;;;9.30;;
42132;SDS011;70517;48.192;16.278;2024-03-02T10:27:37;13.52;;;9.02;;
42132;SDS011;70517;48.192;16.278;2024-03-02T10:30:37;14.27;;;9.43;;
42132;SDS011;70517;48.192;16.278;2024-03-02T10:33:38;12.13;;;9.03;;
42132;SDS011;70517;48.192;16.278;2024-03-02T10:36:41;13.17;;;9.30;;
42132;SDS011;70517;48.192;16.278;2024-03-02T10:39:42;12.68;;;9.40;;
42132;SDS011;70517;48.192;16.278;2024-03-02T10:42:42;11.60;;;8.90;;
42132;SDS011;70517;48.192;16.278;2024-03-02T10:45:44;12.50;;;9.35;;
42132;SDS011;70517;48.192;16.278;2024-03-02T10:48:58;13.80;;;9.48;;
42132;SDS011;70517;48.192;16.278;2024-03-02T10:52:04;12.77;;;9.50;;
42132;SDS011;70517;48.192;16.278;2024-03-02T10:55:04;15.53;;;9.30;;
42132;SDS011;70517;48.192;16.278;2024-03-02T10:58:17;13.35;;;9.48;;
42132;SDS011;70517;48.192;16.278;2024-03-02T11:01:20;14.80;;;9.50;;
42132;SDS011;70517;48.192;16.278;2024-03-02T11:04:20;14.95;;;9.45;;
42132;SDS011;70517;48.192;16.278;2024-03-02T11:07:28;12.63;;;9.35;;
42132;SDS011;70517;48.192;16.278;2024-03-02T11:10:34;13.38;;;9.93;;
42132;SDS011;70517;48.192;16.278;2024-03-02T11:13:34;13.38;;;10.05;;
42132;SDS011;70517;48.192;16.278;2024-03-02T11:16:35;14.30;;;9.40;;
42132;SDS011;70517;48.192;16.278;2024-03-02T11:19:37;12.93;;;9.73;;
42132;SDS011;70517;48.192;16.278;2024-03-02T11:22:38;14.15;;;9.68;;
42132;SDS011;70517;48.192;16.278;2024-03-02T11:25:38;15.27;;;9.97;;
42132;SDS011;70517;48.192;16.278;2024-03-02T11:28:39;12.27;;;9.63;;
42132;SDS011;70517;48.192;16.278;2024-03-02T11:31:58;13.00;;;9.33;;
42132;SDS011;70517;48.192;16.278;2024-03-02T11:35:01;11.93;;;8.68;;
42132;SDS011;70517;48.192;16.278;2024-03-02T11:38:02;14.80;;;10.35;;
42132;SDS011;70517;48.192;16.278;2024-03-02T11:41:05;14.98;;;11.23;;
42132;SDS011;70517;48.192;16.278;2024-03-02T11:44:07;16.00;;;11.43;;
42132;SDS011;70517;48.192;16.278;2024-03-02T11:47:12;14.15;;;10.77;;
42132;SDS011;70517;48.192;16.278;2024-03-02T11:50:16;14.77;;;11.57;;
42132;SDS011;70517;48.192;16.278;2024-03-02T11:53:28;14.23;;;10.93;;
42132;SDS011;70517;48.192;16.278;2024-03-02T11:56:37;12.15;;;9.52;;
42132;SDS011;70517;48.192;16.278;2024-03-02T11:59:37;12.73;;;9.93;;
42132;SDS011;70517;48.192;16.278;2024-03-02T12:02:38;12.80;;;9.63;;
42132;SDS011;70517;48.192;16.278;2024-03-02T12:05:40;13.23;;;9.95;;
42132;SDS011;70517;48.192;16.278;2024-03-02T12:08:40;13.87;;;10.23;;
42132;SDS011;70517;48.192;16.278;2024-03-02T12:11:41;12.63;;;9.57;;
42132;SDS011;70517;48.192;16.278;2024-03-02T12:14:41;14.97;;;10.20;;
42132;SDS011;70517;48.192;16.278;2024-03-02T12:17:52;12.80;;;9.70;;
42132;SDS011;70517;48.192;16.278;2024-03-02T12:20:52;12.65;;;9.43;;
42132;SDS011;70517;48.192;16.278;2024-03-02T12:23:52;11.67;;;8.70;;
42132;SDS011;70517;48.192;16.278;2024-03-02T12:26:53;11.07;;;8.87;;
42132;SDS011;70517;48.192;16.278;2024-03-02T12:29:53;12.75;;;9.32;;
42132;SDS011;70517;48.192;16.278;2024-03-02T12:32:54;12.23;;;9.33;;
42132;SDS011;70517;48.192;16.278;2024-03-02T12:35:54;11.40;;;9.43;;
42132;SDS011;70517;48.192;16.278;2024-03-02T12:38:56;13.80;;;10.07;;
42132;SDS011;70517;48.192;16.278;2024-03-02T12:41:57;13.45;;;9.63;;
42132;SDS011;70517;48.192;16.278;2024-03-02T12:44:57;11.70;;;9.83;;
42132;SDS011;70517;48.192;16.278;2024-03-02T12:47:59;13.37;;;9.60;;
42132;SDS011;70517;48.192;16.278;2024-03-02T12:50:59;13.32;;;9.65;;
42132;SDS011;70517;48.192;16.278;2024-03-02T12:54:00;12.07;;;9.32;;
42132;SDS011;70517;48.192;16.278;2024-03-02T12:57:01;12.97;;;9.43;;
42132;SDS011;70517;48.192;16.278;2024-03-02T13:00:03;12.80;;;9.68;;
42132;SDS011;70517;48.192;16.278;2024-03-02T13:03:09;13.38;;;10.13;;
42132;SDS011;70517;48.192;16.278;2024-03-02T13:06:11;12.25;;;10.38;;
42132;SDS011;70517;48.192;16.278;2024-03-02T13:09:11;9.93;;;8.93;;
42132;SDS011;70517;48.192;16.278;2024-03-02T13:12:15;13.32;;;9.85;;
42132;SDS011;70517;48.192;16.278;2024-03-02T13:15:15;12.02;;;9.25;;
42132;SDS011;70517;48.192;16.278;2024-03-02T13:18:17;12.40;;;9.20;;
42132;SDS011;70517;48.192;16.278;2024-03-02T13:21:18;12.65;;;9.68;;
42132;SDS011;70517;48.192;16.278;2024-03-02T13:24:18;12.07;;;9.97;;
42132;SDS011;70517;48.192;16.278;2024-03-02T13:27:20;12.25;;;9.15;;
42132;SDS011;70517;48.192;16.278;2024-03-02T13:30:20;10.23;;;8.95;;
42132;SDS011;70517;48.192;16.278;2024-03-02T13:33:20;11.83;;;9.27;;
42132;SDS011;70517;48.192;16.278;2024-03-02T13:36:22;11.25;;;8.77;;
42132;SDS011;70517;48.192;16.278;2024-03-02T13:42:24;8.98;;;6.80;;
42132;SDS011;70517;48.192;16.278;2024-03-02T13:45:24;9.30;;;7.93;;
42132;SDS011;70517;48.192;16.278;2024-03-02T13:48:24;9.03;;;7.50;;
42132;SDS011;70517;48.192;16.278;2024-03-02T13:51:27;10.25;;;8.60;;
42132;SDS011;70517;48.192;16.278;2024-03-02T13:54:28;10.83;;;8.30;;
42132;SDS011;70517;48.192;16.278;2024-03-02T13:57:28;11.27;;;8.03;;
42132;SDS011;70517;48.192;16.278;2024-03-02T14:00:28;11.40;;;8.27;;
42132;SDS011;70517;48.192;16.278;2024-03-02T14:03:29;9.68;;;7.40;;
42132;SDS011;70517;48.192;16.278;2024-03-02T14:06:29;9.57;;;7.70;;
42132;SDS011;70517;48.192;16.278;2024-03-02T14:09:29;9.37;;;7.83;;
42132;SDS011;70517;48.192;16.278;2024-03-02T14:12:30;10.43;;;8.10;;
42132;SDS011;70517;48.192;16.278;2024-03-02T14:15:30;10.98;;;8.43;;
42132;SDS011;70517;48.192;16.278;2024-03-02T14:18:31;10.25;;;8.02;;
42132;SDS011;70517;48.192;16.278;2024-03-02T14:21:31;9.27;;;7.83;;
42132;SDS011;70517;48.192;16.278;2024-03-02T14:24:32;9.97;;;8.17;;
42132;SDS011;70517;48.192;16.278;2024-03-02T14:27:32;10.63;;;8.33;;
42132;SDS011;70517;48.192;16.278;2024-03-02T14:30:32;10.80;;;8.20;;
42132;SDS011;70517;48.192;16.278;2024-03-02T14:33:34;10.52;;;8.57;;
42132;SDS011;70517;48.192;16.278;2024-03-02T14:36:34;9.33;;;7.87;;
42132;SDS011;70517;48.192;16.278;2024-03-02T14:39:34;10.37;;;8.83;;
42132;SDS011;70517;48.192;16.278;2024-03-02T14:42:36;10.70;;;8.82;;
42132;SDS011;70517;48.192;16.278;2024-03-02T14:45:36;12.60;;;9.23;;
42132;SDS011;70517;48.192;16.278;2024-03-02T14:48:37;11.27;;;8.73;;
42132;SDS011;70517;48.192;16.278;2024-03-02T14:51:38;10.88;;;8.25;;
42132;SDS011;70517;48.192;16.278;2024-03-02T14:54:38;10.77;;;8.27;;
42132;SDS011;70517;48.192;16.278;2024-03-02T14:57:38;9.53;;;8.23;;
42132;SDS011;70517;48.192;16.278;2024-03-02T15:00:38;12.03;;;8.57;;
42132;SDS011;70517;48.192;16.278;2024-03-02T15:03:39;10.90;;;8.93;;
42132;SDS011;70517;48.192;16.278;2024-03-02T15:06:39;9.55;;;8.48;;
42132;SDS011;70517;48.192;16.278;2024-03-02T15:09:40;10.43;;;8.70;;
42132;SDS011;70517;48.192;16.278;2024-03-02T15:12:40;11.50;;;8.43;;
42132;SDS011;70517;48.192;16.278;2024-03-02T15:15:40;11.03;;;8.53;;
42132;SDS011;70517;48.192;16.278;2024-03-02T15:18:41;10.20;;;8.53;;
42132;SDS011;70517;48.192;16.278;2024-03-02T15:21:41;12.10;;;8.73;;
42132;SDS011;70517;48.192;16.278;2024-03-02T15:24:42;11.02;;;9.07;;
42132;SDS011;70517;48.192;16.278;2024-03-02T15:27:42;11.83;;;8.97;;
42132;SDS011;70517;48.192;16.278;2024-03-02T15:30:43;12.48;;;8.98;;
42132;SDS011;70517;48.192;16.278;2024-03-02T15:33:43;10.37;;;8.57;;
42132;SDS011;70517;48.192;16.278;2024-03-02T15:36:43;12.27;;;9.13;;
42132;SDS011;70517;48.192;16.278;2024-03-02T15:39:43;11.13;;;9.03;;
42132;SDS011;70517;48.192;16.278;2024-03-02T15:42:44;11.83;;;8.87;;
42132;SDS011;70517;48.192;16.278;2024-03-02T15:45:44;11.47;;;9.43;;
42132;SDS011;70517;48.192;16.278;2024-03-02T15:48:44;10.80;;;8.17;;
42132;SDS011;70517;48.192;16.278;2024-03-02T15:51:45;11.77;;;9.57;;
42132;SDS011;70517;48.192;16.278;2024-03-02T15:54:45;11.70;;;9.23;;
42132;SDS011;70517;48.192;16.278;2024-03-02T15:57:45;13.10;;;9.70;;
42132;SDS011;70517;48.192;16.278;2024-03-02T16:00:45;10.57;;;9.03;;
42132;SDS011;70517;48.192;16.278;2024-03-02T16:03:46;11.90;;;9.20;;
42132;SDS011;70517;48.192;16.278;2024-03-02T16:06:46;10.63;;;8.93;;
42132;SDS011;70517;48.192;16.278;2024-03-02T16:09:46;12.10;;;9.23;;
42132;SDS011;70517;48.192;16.278;2024-03-02T16:12:46;10.63;;;9.07;;
42132;SDS011;70517;48.192;16.278;2024-03-02T16:15:47;11.13;;;9.33;;
42132;SDS011;70517;48.192;16.278;2024-03-02T16:18:47;10.43;;;8.80;;
42132;SDS011;70517;48.192;16.278;2024-03-02T16:21:47;9.83;;;8.60;;
42132;SDS011;70517;48.192;16.278;2024-03-02T16:24:47;11.27;;;9.20;;
42132;SDS011;70517;48.192;16.278;2024-03-02T16:27:48;11.80;;;9.13;;
42132;SDS011;70517;48.192;16.278;2024-03-02T16:30:48;9.67;;;7.97;;
42132;SDS011;70517;48.192;16.278;2024-03-02T16:33:48;11.20;;;8.25;;
42132;SDS011;70517;48.192;16.278;2024-03-02T16:36:49;9.57;;;8.40;;
42132;SDS011;70517;48.192;16.278;2024-03-02T16:39:49;10.87;;;9.27;;
42132;SDS011;70517;48.192;16.278;2024-03-02T16:42:49;11.67;;;9.23;;
42132;SDS011;70517;48.192;16.278;2024-03-02T16:45:50;10.03;;;8.23;;
42132;SDS011;70517;48.192;16.278;2024-03-02T16:48:50;11.30;;;9.17;;
42132;SDS011;70517;48.192;16.278;2024-03-02T16:51:50;11.30;;;9.37;;
42132;SDS011;70517;48.192;16.278;2024-03-02T16:54:50;10.70;;;8.83;;
42132;SDS011;70517;48.192;16.278;2024-03-02T16:57:51;11.60;;;8.27;;
42132;SDS011;70517;48.192;16.278;2024-03-02T17:00:51;9.30;;;8.30;;
42132;SDS011;70517;48.192;16.278;2024-03-02T17:03:53;11.70;;;8.10;;
42132;SDS011;70517;48.192;16.278;2024-03-02T17:06:53;9.07;;;7.87;;
42132;SDS011;70517;48.192;16.278;2024-03-02T17:09:54;11.32;;;8.52;;
42132;SDS011;70517;48.192;16.278;2024-03-02T17:12:56;10.27;;;8.48;;
42132;SDS011;70517;48.192;16.278;2024-03-02T17:15:59;10.55;;;8.32;;
42132;SDS011;70517;48.192;16.278;2024-03-02T17:18:59;9.03;;;7.63;;
42132;SDS011;70517;48.192;16.278;2024-03-02T17:22:00;9.50;;;7.73;;
42132;SDS011;70517;48.192;16.278;2024-03-02T17:25:00;9.37;;;7.77;;
42132;SDS011;70517;48.192;16.278;2024-03-02T17:31:19;8.27;;;7.43;;
42132;SDS011;70517;48.192;16.278;2024-03-02T17:34:19;9.37;;;7.33;;
42132;SDS011;70517;48.192;16.278;2024-03-02T17:37:19;9.33;;;7.43;;
42132;SDS011;70517;48.192;16.278;2024-03-02T17:40:20;10.73;;;8.20;;
42132;SDS011;70517;48.192;16.278;2024-03-02T17:43:20;11.70;;;8.20;;
42132;SDS011;70517;48.192;16.278;2024-03-02T17:46:20;9.43;;;7.43;;
42132;SDS011;70517;48.192;16.278;2024-03-02T17:49:20;10.67;;;8.20;;
42132;SDS011;70517;48.192;16.278;2024-03-02T17:52:21;10.80;;;7.73;;